Creek Data

    Home     View Charts     View Raw Data     Messages

ID Distance Battery Voltage Battery Current Internal Temp Internal Humidity External Temp Solar Input rssi snr Time Stamp Record
33381 14.6 4.20 155 51 35 53 5.1 -83 7 02/25/2025 08:45 AM 15068
33380 14.6 4.20 166 48 35 50 5 -77 6 02/25/2025 08:15 AM 15066
33379 14.6 4.20 184 45 36 48 5 -77 5 02/25/2025 08:00 AM 15065
33378 14.6 3.90 34 44 37 46 4.5 -77 7 02/25/2025 07:45 AM 15064
33377 14.5 3.93 57 42 37 44 4.5 -77 8 02/25/2025 07:30 AM 15063
33376 14.6 3.87 9 42 37 40 4.5 -78 7 02/25/2025 07:15 AM 15062
33375 14.5 3.80 -17 42 37 43 4.5 -78 7 02/25/2025 07:00 AM 15061
33374 14.5 3.74 -10 42 37 43 4.2 -78 8 02/25/2025 06:45 AM 15060
33373 14.5 3.75 -5 41 38 44 0.8 -79 8 02/25/2025 06:30 AM 15059
33372 14.5 3.83 -5 41 38 43 0 -80 8 02/25/2025 06:15 AM 15058
33371 14.5 3.77 -5 41 38 43 0 -80 6 02/25/2025 06:00 AM 15057
33370 14.5 3.78 -5 41 38 42 0.1 -80 7 02/25/2025 05:45 AM 15056
33369 14.5 3.78 -5 42 38 43 0 -80 7 02/25/2025 05:30 AM 15055
33368 14.5 3.84 -5 44 37 45 0.1 -81 8 02/25/2025 05:15 AM 15054
33367 14.5 3.78 -5 43 37 46 0.1 -81 7 02/25/2025 05:00 AM 15053
33366 14.5 3.78 -5 41 38 47 0 -85 8 02/25/2025 04:45 AM 15052
33365 14.5 3.84 -5 42 38 42 0.1 -83 8 02/25/2025 04:30 AM 15051
33364 14.5 3.78 -5 41 38 43 0 -78 8 02/25/2025 04:15 AM 15050
33363 14.5 3.78 -5 42 38 43 0.1 -77 8 02/25/2025 04:00 AM 15049
33362 14.5 3.79 -5 42 38 43 0 -75 9 02/25/2025 03:45 AM 15048
33361 14.5 3.84 -5 43 38 43 0 -74 8 02/25/2025 03:30 AM 15047
33360 14.5 3.79 -5 43 38 47 0 -72 8 02/25/2025 03:15 AM 15046
33359 14.5 3.79 -5 43 39 45 0 -73 8 02/25/2025 03:00 AM 15045
33358 14.4 3.84 -5 43 39 44 0 -71 8 02/25/2025 02:45 AM 15044
33357 14.5 3.79 -5 43 39 45 0 -72 7 02/25/2025 02:30 AM 15043